createdAt,value
2022-10-17T00:02:23.595Z,97109.31
2022-10-17T00:04:51.532Z,97113.31
2022-10-17T00:07:19.479Z,97116.22
2022-10-17T00:09:47.395Z,97116.81
2022-10-17T00:12:15.342Z,97117.53
2022-10-17T00:14:43.258Z,97118.31
2022-10-17T00:17:11.190Z,97110.19
2022-10-17T00:19:40.709Z,97110.19
2022-10-17T00:22:08.686Z,97112.44
2022-10-17T00:24:36.602Z,97115.13
2022-10-17T00:27:04.690Z,97110.94
2022-10-17T00:29:32.650Z,97113.63
2022-10-17T00:32:00.559Z,97116.88
2022-10-17T00:34:30.860Z,97111.53
2022-10-17T00:37:00.099Z,97117.38
2022-10-17T00:39:28.012Z,97111.19
2022-10-17T00:41:55.986Z,97111.09
2022-10-17T00:45:03.006Z,97109.66
2022-10-17T00:47:31.657Z,97104.97
2022-10-17T00:52:34.542Z,97111.59
2022-10-17T00:55:05.294Z,97105.75
2022-10-17T00:57:33.741Z,97110.97
2022-10-17T01:00:05.998Z,97113.78
2022-10-17T01:02:33.912Z,97112.34
2022-10-17T01:05:02.254Z,97111.44
2022-10-17T01:07:33.302Z,97115.09
2022-10-17T01:10:07.134Z,97102.91
2022-10-17T01:12:42.650Z,97103.41
2022-10-17T01:15:14.457Z,97099.31
2022-10-17T01:17:52.166Z,97107.22
2022-10-17T01:20:39.506Z,97102.97
2022-10-17T01:23:26.165Z,97100.84
2022-10-17T01:25:58.026Z,97102.69
2022-10-17T01:28:45.479Z,97097.81
2022-10-17T01:31:15.972Z,97099.41
2022-10-17T01:33:48.800Z,97100.38
2022-10-17T01:36:26.326Z,97091.97
2022-10-17T01:38:59.873Z,97094.28
2022-10-17T01:41:36.357Z,97101.38
2022-10-17T01:44:09.006Z,97093.88
2022-10-17T01:46:39.506Z,97094.59
2022-10-17T01:49:09.873Z,97095.41
2022-10-17T01:51:39.977Z,97093.28
2022-10-17T01:54:12.126Z,97087.00
2022-10-17T01:56:41.515Z,97080.59
2022-10-17T01:59:14.440Z,97080.94
2022-10-17T02:01:45.816Z,97083.63
2022-10-17T02:04:13.780Z,97082.25
2022-10-17T02:06:41.658Z,97090.25
2022-10-17T02:09:18.692Z,97086.03
2022-10-17T02:11:53.790Z,97087.97
2022-10-17T02:14:29.596Z,97082.09
2022-10-17T02:17:06.610Z,97095.59
2022-10-17T02:19:47.634Z,97091.63
2022-10-17T02:22:22.149Z,97098.31
2022-10-17T02:24:54.092Z,97097.78
2022-10-17T02:27:28.951Z,97101.53
2022-10-17T02:30:00.345Z,97102.63
2022-10-17T02:32:36.248Z,97101.41
2022-10-17T02:35:05.967Z,97100.31
2022-10-17T02:37:34.193Z,97107.44
2022-10-17T02:40:02.805Z,97109.34
2022-10-17T02:42:31.618Z,97115.88
2022-10-17T02:45:01.115Z,97119.78
2022-10-17T02:47:34.487Z,97110.94
2022-10-17T02:50:02.371Z,97110.00
2022-10-17T02:52:34.637Z,97112.53
2022-10-17T02:55:06.670Z,97111.63
2022-10-17T02:57:37.941Z,97111.75
2022-10-17T03:00:08.735Z,97119.25
2022-10-17T03:02:42.847Z,97120.09
2022-10-17T03:05:11.752Z,97125.25
2022-10-17T03:07:39.764Z,97121.06
2022-10-17T03:10:08.714Z,97124.59
2022-10-17T03:12:36.668Z,97126.16
2022-10-17T03:15:04.924Z,97123.72
2022-10-17T03:17:33.232Z,97123.22
2022-10-17T03:20:02.583Z,97123.25
2022-10-17T03:22:30.628Z,97126.25
2022-10-17T03:24:58.889Z,97123.22
2022-10-17T03:27:27.681Z,97123.72
2022-10-17T03:29:55.981Z,97127.38
2022-10-17T03:32:23.943Z,97130.97
2022-10-17T03:34:51.894Z,97137.25
2022-10-17T03:37:21.147Z,97134.75
2022-10-17T03:39:49.166Z,97135.69
2022-10-17T03:42:17.089Z,97137.06
2022-10-17T03:44:44.994Z,97140.75
2022-10-17T03:47:14.225Z,97142.56
2022-10-17T03:49:42.369Z,97143.28
2022-10-17T03:52:12.685Z,97149.00
2022-10-17T03:54:42.082Z,97140.78
2022-10-17T03:57:10.032Z,97140.38
2022-10-17T03:59:37.948Z,97146.69
2022-10-17T04:02:05.887Z,97151.91
2022-10-17T04:04:33.825Z,97154.44
2022-10-17T04:07:01.780Z,97143.53
2022-10-17T04:09:29.679Z,97148.78
2022-10-17T04:11:58.947Z,97153.81
2022-10-17T04:14:26.838Z,97153.56
2022-10-17T04:16:54.728Z,97145.13
2022-10-17T04:19:22.637Z,97154.69
2022-10-17T04:21:50.605Z,97154.13
2022-10-17T04:24:18.544Z,97157.47
2022-10-17T04:26:46.538Z,97163.38
2022-10-17T04:29:16.259Z,97155.94
2022-10-17T04:31:44.326Z,97167.22
2022-10-17T04:34:14.137Z,97162.53
2022-10-17T04:36:42.162Z,97157.84
2022-10-17T04:39:10.145Z,97159.84
2022-10-17T04:41:38.181Z,97165.75
2022-10-17T04:44:06.321Z,97157.38
2022-10-17T04:46:37.186Z,97160.09
2022-10-17T04:49:05.114Z,97161.97
2022-10-17T04:51:33.081Z,97171.16
2022-10-17T04:54:01.017Z,97167.56
2022-10-17T04:56:28.931Z,97170.84
2022-10-17T04:58:57.010Z,97170.00
2022-10-17T05:01:26.366Z,97172.06
2022-10-17T05:03:56.052Z,97172.22
2022-10-17T05:06:25.658Z,97170.47
2022-10-17T05:08:53.578Z,97173.91
2022-10-17T05:11:23.174Z,97163.50
2022-10-17T05:13:52.503Z,97163.31
2022-10-17T05:16:20.418Z,97168.16
2022-10-17T05:18:52.794Z,97170.47
2022-10-17T05:21:22.886Z,97175.69
2022-10-17T05:23:51.097Z,97178.09
2022-10-17T05:26:19.845Z,97184.06
2022-10-17T05:28:47.995Z,97184.28
2022-10-17T05:31:15.975Z,97179.28
2022-10-17T05:33:44.143Z,97195.78
2022-10-17T05:36:12.106Z,97187.25
2022-10-17T05:38:41.470Z,97200.59
2022-10-17T05:41:10.612Z,97193.81
2022-10-17T05:43:38.537Z,97197.19
2022-10-17T05:46:07.186Z,97206.78
2022-10-17T05:48:35.675Z,97207.78
2022-10-17T05:51:05.525Z,97214.94
2022-10-17T05:53:34.298Z,97212.31
2022-10-17T05:56:05.810Z,97218.28
2022-10-17T05:58:52.327Z,97214.00
2022-10-17T06:01:22.110Z,97217.06
2022-10-17T06:03:50.015Z,97217.47
2022-10-17T06:06:18.345Z,97224.09
2022-10-17T06:08:46.776Z,97226.47
2022-10-17T06:11:16.340Z,97224.09
2022-10-17T06:13:44.356Z,97221.25
2022-10-17T06:16:12.307Z,97238.28
2022-10-17T06:18:40.446Z,97221.81
2022-10-17T06:21:10.077Z,97228.34
2022-10-17T06:23:38.186Z,97233.13
2022-10-17T06:26:07.290Z,97228.28
2022-10-17T06:28:37.173Z,97230.81
2022-10-17T06:31:06.896Z,97233.66
2022-10-17T06:33:34.916Z,97241.16
2022-10-17T06:36:03.235Z,97237.31
2022-10-17T06:38:31.489Z,97241.69
2022-10-17T06:41:08.239Z,97241.00
2022-10-17T06:43:37.882Z,97249.91
2022-10-17T06:46:06.453Z,97254.66
2022-10-17T06:48:34.555Z,97253.66
2022-10-17T06:51:03.278Z,97265.69
2022-10-17T06:53:31.765Z,97264.34
2022-10-17T06:56:03.034Z,97264.69
2022-10-17T06:58:31.217Z,97279.34
2022-10-17T07:01:05.168Z,97271.00
2022-10-17T07:03:33.341Z,97274.69
2022-10-17T07:06:01.700Z,97275.53
2022-10-17T07:08:29.824Z,97268.16
2022-10-17T07:10:58.064Z,97268.22
2022-10-17T07:13:26.300Z,97289.25
2022-10-17T07:18:27.664Z,97282.41
2022-10-17T07:20:56.105Z,97277.81
2022-10-17T07:23:24.844Z,97288.06
2022-10-17T07:25:53.126Z,97280.94
2022-10-17T07:28:21.253Z,97278.00
2022-10-17T07:30:52.075Z,97282.63
2022-10-17T07:33:22.384Z,97277.22
2022-10-17T07:35:52.825Z,97272.22
2022-10-17T07:38:20.821Z,97272.19
2022-10-17T07:40:55.609Z,97268.25
2022-10-17T07:43:23.953Z,97253.34
2022-10-17T07:45:52.362Z,97274.44
2022-10-17T07:48:20.991Z,97272.16
2022-10-17T07:50:49.410Z,97280.03
2022-10-17T07:53:18.972Z,97276.56
2022-10-17T07:55:48.156Z,97269.41
2022-10-17T07:58:16.348Z,97266.19
2022-10-17T08:00:44.457Z,97274.06
2022-10-17T08:03:12.595Z,97274.00
2022-10-17T08:05:40.471Z,97276.00
2022-10-17T08:08:08.372Z,97269.53
2022-10-17T08:10:38.141Z,97274.16
2022-10-17T08:13:06.030Z,97275.59
2022-10-17T08:15:33.928Z,97270.47
2022-10-17T08:18:02.100Z,97277.00
2022-10-17T08:20:30.029Z,97266.31
2022-10-17T08:22:58.106Z,97281.91
2022-10-17T08:25:26.053Z,97279.59
2022-10-17T08:27:55.392Z,97285.44
2022-10-17T08:30:23.299Z,97279.38
2022-10-17T08:32:51.198Z,97283.78
2022-10-17T08:35:19.192Z,97271.38
2022-10-17T08:37:47.109Z,97273.13
2022-10-17T08:40:19.354Z,97273.88
2022-10-17T08:43:02.277Z,97274.91
2022-10-17T08:45:34.200Z,97288.72
2022-10-17T08:48:03.390Z,97282.88
2022-10-17T08:50:37.163Z,97278.97
2022-10-17T08:53:08.961Z,97282.03
2022-10-17T08:55:42.755Z,97279.88
2022-10-17T08:58:20.277Z,97286.13
2022-10-17T09:00:54.199Z,97278.69
2022-10-17T09:03:35.662Z,97280.00
2022-10-17T09:06:12.606Z,97279.56
2022-10-17T09:08:47.332Z,97271.81
2022-10-17T09:11:35.231Z,97285.41
2022-10-17T09:14:13.394Z,97282.63
2022-10-17T09:16:55.928Z,97269.91
2022-10-17T09:19:27.156Z,97285.19
2022-10-17T09:21:57.454Z,97295.06
2022-10-17T09:24:43.745Z,97308.72
2022-10-17T09:27:20.261Z,97313.25
2022-10-17T09:29:51.836Z,97307.81
2022-10-17T09:32:22.466Z,97302.25
2022-10-17T09:34:50.442Z,97306.63
2022-10-17T09:37:18.605Z,97314.44
2022-10-17T09:39:46.993Z,97311.78
2022-10-17T09:42:18.860Z,97311.34
2022-10-17T09:44:53.351Z,97309.88
2022-10-17T09:47:28.714Z,97296.22
2022-10-17T09:49:56.641Z,97313.47
2022-10-17T09:52:28.863Z,97312.75
2022-10-17T09:55:01.475Z,97310.41
2022-10-17T09:57:29.507Z,97306.22
2022-10-17T10:00:01.056Z,97306.97
2022-10-17T10:02:30.749Z,97305.84
2022-10-17T10:05:05.887Z,97315.22
2022-10-17T10:07:37.022Z,97308.81
2022-10-17T10:10:06.906Z,97307.25
2022-10-17T10:12:36.661Z,97305.50
2022-10-17T10:15:34.608Z,97301.78
2022-10-17T10:18:02.773Z,97305.94
2022-10-17T10:20:33.920Z,97311.38
2022-10-17T10:23:13.210Z,97307.16
2022-10-17T10:25:51.223Z,97307.97
2022-10-17T10:28:19.320Z,97300.19
2022-10-17T10:30:52.721Z,97300.06
2022-10-17T10:33:21.460Z,97304.38
2022-10-17T10:35:56.793Z,97301.00
2022-10-17T10:38:25.109Z,97285.13
2022-10-17T10:40:54.338Z,97288.56
2022-10-17T10:43:34.238Z,97296.78
2022-10-17T10:46:04.202Z,97294.16
2022-10-17T10:48:35.178Z,97294.97
2022-10-17T10:51:06.608Z,97292.50
2022-10-17T10:53:41.382Z,97286.63
2022-10-17T10:56:13.756Z,97294.00
2022-10-17T10:58:51.094Z,97295.28
2022-10-17T11:01:29.652Z,97284.94
2022-10-17T11:04:06.836Z,97289.44
2022-10-17T11:06:38.142Z,97283.88
2022-10-17T11:09:24.353Z,97278.19
2022-10-17T11:11:57.077Z,97283.28
2022-10-17T11:14:34.720Z,97279.53
2022-10-17T11:17:09.544Z,97288.69
2022-10-17T11:19:41.619Z,97285.66
2022-10-17T11:22:14.409Z,97278.56
2022-10-17T11:24:45.998Z,97275.53
2022-10-17T11:27:13.926Z,97282.66
2022-10-17T11:29:42.787Z,97284.44
2022-10-17T11:32:16.570Z,97280.44
2022-10-17T11:34:47.934Z,97279.38
2022-10-17T11:37:18.717Z,97277.78
2022-10-17T11:39:50.815Z,97285.41
2022-10-17T11:42:22.362Z,97284.31
2022-10-17T11:44:53.643Z,97281.06
2022-10-17T11:47:32.875Z,97271.91
2022-10-17T11:52:57.599Z,97271.88
2022-10-17T11:55:27.366Z,97268.72
2022-10-17T11:58:08.325Z,97270.50
2022-10-17T12:00:48.890Z,97266.22
2022-10-17T12:03:28.562Z,97262.03
2022-10-17T12:06:01.009Z,97257.13
2022-10-17T12:08:37.604Z,97256.00
2022-10-17T12:11:11.822Z,97259.97
2022-10-17T12:13:54.730Z,97259.47
2022-10-17T12:16:40.287Z,97257.25
2022-10-17T12:19:32.563Z,97261.91
2022-10-17T12:22:22.740Z,97251.25
2022-10-17T12:24:59.497Z,97251.47
2022-10-17T12:27:38.849Z,97246.63
2022-10-17T12:30:16.596Z,97250.13
2022-10-17T12:33:08.087Z,97254.38
2022-10-17T12:35:39.225Z,97253.13
2022-10-17T12:38:23.626Z,97249.56
2022-10-17T12:40:53.734Z,97252.63
2022-10-17T12:43:52.976Z,97251.78
2022-10-17T12:46:49.425Z,97250.13
2022-10-17T12:49:39.927Z,97259.00
2022-10-17T12:52:31.631Z,97253.50
2022-10-17T12:55:12.587Z,97255.78
2022-10-17T12:57:53.293Z,97256.34
2022-10-17T13:00:25.450Z,97257.13
2022-10-17T13:02:56.372Z,97252.56
2022-10-17T13:05:29.348Z,97257.19
2022-10-17T13:08:00.950Z,97255.41
2022-10-17T13:10:30.644Z,97252.97
2022-10-17T13:13:06.305Z,97250.13
2022-10-17T13:15:34.866Z,97257.19
2022-10-17T13:18:03.280Z,97254.28
2022-10-17T13:20:33.147Z,97254.63
2022-10-17T13:23:02.564Z,97260.97
2022-10-17T13:25:30.501Z,97257.94
2022-10-17T13:28:07.994Z,97256.22
2022-10-17T13:30:37.338Z,97256.81
2022-10-17T13:33:19.258Z,97263.28
2022-10-17T13:35:59.964Z,97243.97
2022-10-17T13:38:32.555Z,97245.75
2022-10-17T13:41:16.862Z,97249.13
2022-10-17T13:43:50.884Z,97250.38
2022-10-17T13:46:37.287Z,97248.78
2022-10-17T13:49:13.062Z,97234.91
2022-10-17T13:51:44.631Z,97241.75
2022-10-17T13:54:32.061Z,97247.25
2022-10-17T13:57:00.606Z,97250.53
2022-10-17T13:59:32.460Z,97222.19
2022-10-17T14:02:01.703Z,97248.97
2022-10-17T14:04:40.004Z,97246.94
2022-10-17T14:07:27.041Z,97253.16
2022-10-17T14:09:57.090Z,97257.25
2022-10-17T14:12:25.144Z,97251.94
2022-10-17T14:15:11.035Z,97249.31
2022-10-17T14:17:39.592Z,97243.41
2022-10-17T14:20:40.790Z,97218.25
2022-10-17T14:23:21.360Z,97246.00
2022-10-17T14:25:46.194Z,97248.19
2022-10-17T14:28:15.909Z,97252.19
2022-10-17T14:30:56.183Z,97247.63
2022-10-17T14:33:28.527Z,97254.00
2022-10-17T14:35:57.854Z,97234.81
2022-10-17T14:38:26.545Z,97244.75
2022-10-17T14:41:23.562Z,97249.28
2022-10-17T14:43:54.675Z,97255.44
2022-10-17T14:46:25.704Z,97249.06
2022-10-17T14:48:55.970Z,97238.38
2022-10-17T14:51:24.240Z,97247.72
2022-10-17T14:54:06.571Z,97224.69
2022-10-17T14:56:41.819Z,97250.53
2022-10-17T14:59:13.750Z,97253.44
2022-10-17T15:01:46.111Z,97255.59
2022-10-17T15:04:14.078Z,97250.00
2022-10-17T15:06:42.114Z,97255.66
2022-10-17T15:09:10.911Z,97254.97
2022-10-17T15:11:40.329Z,97249.13
2022-10-17T15:14:08.286Z,97254.81
2022-10-17T15:16:37.206Z,97253.19
2022-10-17T15:19:05.105Z,97259.50
2022-10-17T15:21:40.517Z,97254.78
2022-10-17T15:24:11.211Z,97250.97
2022-10-17T15:26:40.547Z,97259.25
2022-10-17T15:29:08.568Z,97254.38
2022-10-17T15:31:36.543Z,97260.19
2022-10-17T15:34:04.447Z,97254.97
2022-10-17T15:36:36.432Z,97260.34
2022-10-17T15:39:04.594Z,97252.03
2022-10-17T15:41:33.268Z,97261.84
2022-10-17T15:44:02.547Z,97261.41
2022-10-17T15:46:32.102Z,97258.50
2022-10-17T15:49:03.734Z,97265.47
2022-10-17T15:51:31.666Z,97253.19
2022-10-17T15:54:01.408Z,97250.91
2022-10-17T15:56:31.422Z,97250.50
2022-10-17T15:58:59.437Z,97259.09
2022-10-17T16:01:31.427Z,97256.41
2022-10-17T16:03:59.481Z,97258.75
2022-10-17T16:06:27.573Z,97235.84
2022-10-17T16:08:55.470Z,97250.53
2022-10-17T16:11:29.337Z,97255.09
2022-10-17T16:13:58.945Z,97247.41
2022-10-17T16:16:29.608Z,97252.47
2022-10-17T16:18:57.625Z,97259.56
2022-10-17T16:21:28.665Z,97241.69
2022-10-17T16:23:56.637Z,97269.31
2022-10-17T16:26:24.731Z,97270.88
2022-10-17T16:28:52.808Z,97258.66
2022-10-17T16:31:24.665Z,97261.28
2022-10-17T16:33:55.588Z,97247.22
2022-10-17T16:36:23.877Z,97252.78
2022-10-17T16:38:54.051Z,97263.44
2022-10-17T16:41:24.012Z,97267.53
2022-10-17T16:43:53.811Z,97264.56
2022-10-17T16:46:22.042Z,97264.47
2022-10-17T16:48:50.010Z,97253.00
2022-10-17T16:51:20.556Z,97257.53
2022-10-17T16:53:50.319Z,97256.19
2022-10-17T16:56:19.676Z,97262.66
2022-10-17T16:58:48.532Z,97263.09
2022-10-17T17:01:18.793Z,97266.69
2022-10-17T17:03:47.906Z,97269.31
2022-10-17T17:06:19.077Z,97259.44
2022-10-17T17:08:48.635Z,97264.78
2022-10-17T17:11:20.126Z,97271.53
2022-10-17T17:13:48.412Z,97271.13
2022-10-17T17:16:17.637Z,97259.34
2022-10-17T17:18:46.203Z,97263.63
2022-10-17T17:21:14.441Z,97264.19
2022-10-17T17:23:44.105Z,97264.19
2022-10-17T17:26:15.288Z,97264.72
2022-10-17T17:28:43.854Z,97267.59
2022-10-17T17:31:13.482Z,97271.22
2022-10-17T17:33:42.373Z,97271.97
2022-10-17T17:36:13.746Z,97265.81
2022-10-17T17:38:42.273Z,97267.38
2022-10-17T17:41:14.352Z,97276.81
2022-10-17T17:43:42.979Z,97268.31
2022-10-17T17:46:11.152Z,97268.84
2022-10-17T17:48:39.475Z,97271.06
2022-10-17T17:51:08.505Z,97270.13
2022-10-17T17:53:37.049Z,97264.09
2022-10-17T17:56:06.204Z,97274.06
2022-10-17T17:58:36.255Z,97285.53
2022-10-17T18:01:12.266Z,97285.28
2022-10-17T18:03:42.285Z,97282.31
2022-10-17T18:06:10.393Z,97282.03
2022-10-17T18:08:38.386Z,97292.97
2022-10-17T18:11:06.822Z,97287.44
2022-10-17T18:13:36.072Z,97271.78
2022-10-17T18:16:12.663Z,97285.31
2022-10-17T18:18:41.377Z,97282.94
2022-10-17T18:21:09.765Z,97287.75
2022-10-17T18:23:38.759Z,97282.91
2022-10-17T18:26:06.975Z,97294.06
2022-10-17T18:28:37.145Z,97286.47
2022-10-17T18:31:07.147Z,97291.66
2022-10-17T18:33:35.580Z,97292.56
2022-10-17T18:36:07.087Z,97280.50
2022-10-17T18:38:35.382Z,97293.44
2022-10-17T18:41:04.974Z,97295.44
2022-10-17T18:43:34.444Z,97292.59
2022-10-17T18:46:12.299Z,97278.56
2022-10-17T18:48:44.405Z,97294.53
2022-10-17T18:51:12.917Z,97291.97
2022-10-17T18:53:41.053Z,97287.34
2022-10-17T18:56:09.093Z,97295.44
2022-10-17T18:58:37.702Z,97305.13
2022-10-17T19:01:07.968Z,97277.47
2022-10-17T19:03:36.164Z,97296.63
2022-10-17T19:06:07.184Z,97297.16
2022-10-17T19:08:35.168Z,97304.06
2022-10-17T19:11:06.671Z,97298.94
2022-10-17T19:13:34.859Z,97305.97
2022-10-17T19:16:07.874Z,97296.97
2022-10-17T19:18:36.433Z,97299.81
2022-10-17T19:21:05.341Z,97309.13
2022-10-17T19:23:35.487Z,97309.38
2022-10-17T19:26:04.183Z,97314.34
2022-10-17T19:28:32.223Z,97298.47
2022-10-17T19:31:00.337Z,97309.94
2022-10-17T19:33:29.984Z,97313.06
2022-10-17T19:35:58.820Z,97301.75
2022-10-17T19:38:27.300Z,97315.13
2022-10-17T19:40:55.463Z,97314.63
2022-10-17T19:43:23.654Z,97315.84
2022-10-17T19:45:56.009Z,97314.88
2022-10-17T19:48:24.087Z,97316.44
2022-10-17T19:50:54.009Z,97320.06
2022-10-17T19:53:24.146Z,97316.44
2022-10-17T19:55:52.299Z,97321.84
2022-10-17T19:58:21.017Z,97316.94
2022-10-17T20:00:49.146Z,97319.88
2022-10-17T20:03:18.192Z,97329.53
2022-10-17T20:05:46.928Z,97327.31
2022-10-17T20:08:16.781Z,97331.94
2022-10-17T20:10:46.072Z,97334.88
2022-10-17T20:13:14.178Z,97335.09
2022-10-17T20:15:42.119Z,97336.63
2022-10-17T20:18:10.493Z,97332.41
2022-10-17T20:20:38.872Z,97337.78
2022-10-17T20:23:06.744Z,97324.97
2022-10-17T20:25:38.157Z,97341.28
2022-10-17T20:28:06.222Z,97331.66
2022-10-17T20:30:34.145Z,97330.69
2022-10-17T20:33:02.059Z,97331.53
2022-10-17T20:35:30.190Z,97341.59
2022-10-17T20:37:58.428Z,97345.47
2022-10-17T20:40:41.496Z,97335.81
2022-10-17T20:43:12.669Z,97339.78
2022-10-17T20:45:51.813Z,97341.44
2022-10-17T20:48:20.868Z,97342.19
2022-10-17T20:50:49.040Z,97334.66
2022-10-17T20:53:36.030Z,97344.88
2022-10-17T20:56:05.449Z,97334.91
2022-10-17T20:58:34.729Z,97335.34
2022-10-17T21:01:07.241Z,97339.75
2022-10-17T21:03:38.714Z,97332.25
2022-10-17T21:06:10.459Z,97329.97
2022-10-17T21:08:38.717Z,97332.69
2022-10-17T21:11:14.323Z,97331.78
2022-10-17T21:13:43.775Z,97330.91
2022-10-17T21:16:13.299Z,97332.56
2022-10-17T21:18:41.841Z,97332.09
2022-10-17T21:21:14.601Z,97330.59
2022-10-17T21:23:43.567Z,97336.50
2022-10-17T21:26:12.690Z,97335.03
2022-10-17T21:28:40.938Z,97329.31
2022-10-17T21:31:12.752Z,97331.38
2022-10-17T21:33:41.424Z,97331.25
2022-10-17T21:36:10.130Z,97332.25
2022-10-17T21:38:38.601Z,97338.03
2022-10-17T21:41:07.742Z,97337.38
2022-10-17T21:43:36.701Z,97338.94
2022-10-17T21:46:05.470Z,97337.88
2022-10-17T21:48:35.344Z,97334.03
2022-10-17T21:51:05.498Z,97345.22
2022-10-17T21:53:33.908Z,97336.94
2022-10-17T21:56:02.313Z,97343.22
2022-10-17T21:58:30.307Z,97335.69
2022-10-17T22:01:05.319Z,97333.38
2022-10-17T22:03:35.271Z,97322.75
2022-10-17T22:06:12.933Z,97333.78
2022-10-17T22:08:51.593Z,97326.56
2022-10-17T22:11:21.814Z,97329.31
2022-10-17T22:13:49.967Z,97321.31
2022-10-17T22:16:18.188Z,97314.91
2022-10-17T22:18:47.460Z,97324.75
2022-10-17T22:21:17.862Z,97323.59
2022-10-17T22:23:48.096Z,97329.44
2022-10-17T22:26:16.237Z,97330.06
2022-10-17T22:28:44.199Z,97321.13
2022-10-17T22:31:12.139Z,97324.50
2022-10-17T22:33:41.034Z,97309.75
2022-10-17T22:36:10.685Z,97323.44
2022-10-17T22:38:38.613Z,97321.72
2022-10-17T22:41:06.807Z,97322.00
2022-10-17T22:43:34.746Z,97324.69
2022-10-17T22:46:04.768Z,97311.84
2022-10-17T22:48:33.375Z,97311.06
2022-10-17T22:51:01.890Z,97313.53
2022-10-17T22:53:31.266Z,97322.84
2022-10-17T22:56:00.849Z,97317.75
2022-10-17T22:58:30.577Z,97307.41
2022-10-17T23:00:58.597Z,97312.00
2022-10-17T23:03:28.518Z,97306.72
2022-10-17T23:05:56.697Z,97308.63
2022-10-17T23:08:25.269Z,97309.44
2022-10-17T23:10:54.543Z,97306.97
2022-10-17T23:13:22.956Z,97314.06
2022-10-17T23:15:52.731Z,97302.50
2022-10-17T23:18:21.395Z,97295.94
2022-10-17T23:20:49.577Z,97300.56
2022-10-17T23:23:18.111Z,97303.25
2022-10-17T23:25:46.020Z,97302.63
2022-10-17T23:28:15.438Z,97303.38
2022-10-17T23:30:43.460Z,97296.28
2022-10-17T23:33:12.822Z,97293.94
2022-10-17T23:35:40.955Z,97290.91
2022-10-17T23:38:08.964Z,97293.53
2022-10-17T23:40:37.023Z,97298.38
2022-10-17T23:43:05.323Z,97287.88
2022-10-17T23:45:36.244Z,97288.38
2022-10-17T23:48:05.637Z,97279.28
2022-10-17T23:50:33.558Z,97285.66
2022-10-17T23:53:01.478Z,97283.50
2022-10-17T23:55:29.507Z,97280.34
2022-10-17T23:57:57.378Z,97280.56
